createdAt,value
2019-04-21T00:01:18.274Z,98432.72
2019-04-21T00:03:54.897Z,98434.59
2019-04-21T00:06:43.454Z,98428.48
2019-04-21T00:11:42.562Z,98420.52
2019-04-21T00:14:05.993Z,98411.17
2019-04-21T00:16:36.913Z,98411.38
2019-04-21T00:19:20.819Z,98407.48
2019-04-21T00:21:55.425Z,98405.97
2019-04-21T00:24:37.476Z,98405.02
2019-04-21T00:27:11.161Z,98404.81
2019-04-21T00:29:45.664Z,98398.95
2019-04-21T00:32:10.221Z,98405.08
2019-04-21T00:34:28.196Z,98405.98
2019-04-21T00:37:09.429Z,98408.83
2019-04-21T00:40:01.896Z,98398.86
2019-04-21T00:42:21.561Z,98400.47
2019-04-21T00:44:52.009Z,98393.80
2019-04-21T00:47:27.931Z,98388.16
2019-04-21T00:50:00.824Z,98391.22
2019-04-21T00:52:46.136Z,98384.06
2019-04-21T00:55:34.137Z,98383.84
2019-04-21T00:57:51.880Z,98386.41
2019-04-21T01:00:18.704Z,98385.58
2019-04-21T01:02:59.411Z,98382.36
2019-04-21T01:05:21.245Z,98379.75
2019-04-21T01:07:50.705Z,98381.79
2019-04-21T01:10:20.789Z,98377.41
2019-04-21T01:13:04.026Z,98376.32
2019-04-21T01:15:37.392Z,98377.85
2019-04-21T01:18:04.801Z,98374.62
2019-04-21T01:20:18.079Z,98382.54
2019-04-21T01:22:47.720Z,98378.66
2019-04-21T01:25:27.169Z,98371.33
2019-04-21T01:28:03.845Z,98373.77
2019-04-21T01:30:40.996Z,98369.29
2019-04-21T01:33:15.164Z,98367.38
2019-04-21T01:35:44.299Z,98367.11
2019-04-21T01:38:24.418Z,98366.08
2019-04-21T01:40:52.943Z,98363.36
2019-04-21T01:43:21.840Z,98362.27
2019-04-21T01:45:48.782Z,98364.75
2019-04-21T01:48:21.509Z,98362.78
2019-04-21T01:50:55.267Z,98356.61
2019-04-21T01:53:44.798Z,98347.67
2019-04-21T01:56:17.302Z,98352.20
2019-04-21T01:58:42.813Z,98347.31
2019-04-21T02:01:26.210Z,98347.37
2019-04-21T02:04:09.436Z,98345.59
2019-04-21T02:06:29.033Z,98350.81
2019-04-21T02:08:57.753Z,98349.42
2019-04-21T02:11:32.756Z,98343.94
2019-04-21T02:14:12.873Z,98339.19
2019-04-21T02:16:42.962Z,98339.69
2019-04-21T02:19:08.237Z,98346.80
2019-04-21T02:21:36.545Z,98336.55
2019-04-21T02:24:23.552Z,98337.36
2019-04-21T02:26:47.717Z,98338.38
2019-04-21T02:29:22.532Z,98341.42
2019-04-21T02:32:14.926Z,98340.55
2019-04-21T02:34:44.899Z,98333.83
2019-04-21T02:42:15.077Z,98332.84
2019-04-21T02:47:21.635Z,98332.30
2019-04-21T02:49:56.026Z,98329.08
2019-04-21T02:52:23.794Z,98334.18
2019-04-21T02:55:02.912Z,98325.31
2019-04-21T02:57:15.696Z,98323.21
2019-04-21T02:59:58.298Z,98320.97
2019-04-21T03:02:35.172Z,98318.39
2019-04-21T03:07:52.278Z,98320.86
2019-04-21T03:10:20.615Z,98322.13
2019-04-21T03:12:48.207Z,98316.40
2019-04-21T03:15:33.161Z,98312.23
2019-04-21T03:18:15.051Z,98320.38
2019-04-21T03:20:35.767Z,98317.13
2019-04-21T03:23:07.880Z,98310.24
2019-04-21T03:25:45.324Z,98309.19
2019-04-21T03:28:11.149Z,98316.20
2019-04-21T03:38:19.161Z,98297.75
2019-04-21T03:40:47.356Z,98302.45
2019-04-21T03:43:34.906Z,98303.21
2019-04-21T03:45:49.337Z,98296.98
2019-04-21T03:48:29.136Z,98296.27
2019-04-21T03:50:56.936Z,98292.73
2019-04-21T03:56:00.608Z,98292.80
2019-04-21T03:58:46.410Z,98296.78
2019-04-21T04:01:07.782Z,98290.57
2019-04-21T04:06:53.667Z,98298.17
2019-04-21T04:11:37.769Z,98290.20
2019-04-21T04:14:20.336Z,98296.88
2019-04-21T04:16:37.986Z,98294.77
2019-04-21T04:19:09.059Z,98292.97
2019-04-21T04:21:47.799Z,98288.77
2019-04-21T04:24:13.746Z,98291.27
2019-04-21T04:31:55.357Z,98285.89
2019-04-21T04:34:22.658Z,98291.80
2019-04-21T04:37:13.629Z,98287.36
2019-04-21T04:42:12.790Z,98287.34
2019-04-21T04:44:50.033Z,98289.84
2019-04-21T04:49:48.179Z,98282.89
2019-04-21T04:52:31.444Z,98277.95
2019-04-21T04:57:40.103Z,98274.26
2019-04-21T05:00:01.143Z,98270.63
2019-04-21T05:07:23.129Z,98267.27
2019-04-21T05:09:57.586Z,98271.24
2019-04-21T05:12:27.117Z,98272.55
2019-04-21T05:14:51.918Z,98263.34
2019-04-21T05:24:52.647Z,98277.05
2019-04-21T05:27:34.232Z,98269.23
2019-04-21T05:30:21.961Z,98277.82
2019-04-21T05:33:05.633Z,98273.67
2019-04-21T05:35:48.996Z,98269.89
2019-04-21T05:38:27.296Z,98271.16
2019-04-21T05:40:55.215Z,98268.78
2019-04-21T05:43:32.484Z,98270.18
2019-04-21T05:46:04.789Z,98267.73
2019-04-21T05:48:39.679Z,98271.45
2019-04-21T05:51:07.810Z,98265.59
2019-04-21T05:53:49.227Z,98268.94
2019-04-21T05:56:17.663Z,98267.77
2019-04-21T05:58:48.065Z,98266.50
2019-04-21T06:01:31.403Z,98264.10
2019-04-21T06:04:03.617Z,98268.92
2019-04-21T06:06:37.561Z,98263.75
2019-04-21T06:08:59.579Z,98262.94
2019-04-21T06:11:30.914Z,98258.80
2019-04-21T06:14:10.879Z,98262.67
2019-04-21T06:16:43.092Z,98261.41
2019-04-21T06:19:05.167Z,98263.70
2019-04-21T06:21:40.453Z,98256.00
2019-04-21T06:24:12.693Z,98257.20
2019-04-21T06:27:00.375Z,98250.60
2019-04-21T06:29:22.393Z,98249.66
2019-04-21T06:34:16.685Z,98253.80
2019-04-21T06:37:05.820Z,98253.69
2019-04-21T06:39:31.833Z,98246.05
2019-04-21T06:41:56.453Z,98255.47
2019-04-21T06:44:36.390Z,98255.14
2019-04-21T06:47:09.840Z,98255.38
2019-04-21T06:49:34.271Z,98249.66
2019-04-21T06:52:19.374Z,98245.86
2019-04-21T06:54:40.978Z,98244.50
2019-04-21T06:57:08.717Z,98239.41
2019-04-21T06:59:38.438Z,98235.66
2019-04-21T07:02:35.226Z,98237.70
2019-04-21T07:04:51.483Z,98239.48
2019-04-21T07:07:19.074Z,98234.13
2019-04-21T07:09:57.521Z,98235.22
2019-04-21T07:12:26.122Z,98227.17
2019-04-21T07:14:59.455Z,98229.52
2019-04-21T07:17:30.750Z,98220.26
2019-04-21T07:22:37.574Z,98221.84
2019-04-21T07:24:58.710Z,98213.98
2019-04-21T07:27:35.357Z,98222.35
2019-04-21T07:30:20.851Z,98221.47
2019-04-21T07:32:40.031Z,98212.53
2019-04-21T07:35:08.454Z,98206.97
2019-04-21T07:37:41.057Z,98211.56
2019-04-21T07:40:05.582Z,98206.48
2019-04-21T07:42:38.057Z,98207.58
2019-04-21T07:45:08.772Z,98211.05
2019-04-21T07:48:06.579Z,98213.06
2019-04-21T07:50:57.768Z,98206.63
2019-04-21T07:53:51.346Z,98202.41
2019-04-21T07:56:06.522Z,98196.16
2019-04-21T07:58:58.254Z,98206.28
2019-04-21T08:01:25.712Z,98204.76
2019-04-21T08:03:56.983Z,98196.17
2019-04-21T08:06:26.884Z,98193.25
2019-04-21T08:09:02.916Z,98194.10
2019-04-21T08:11:28.260Z,98187.27
2019-04-21T08:14:01.137Z,98190.92
2019-04-21T08:16:36.824Z,98190.52
2019-04-21T08:19:09.670Z,98191.06
2019-04-21T08:21:47.788Z,98192.62
2019-04-21T08:24:14.555Z,98187.72
2019-04-21T08:26:58.687Z,98191.92
2019-04-21T08:29:25.834Z,98193.67
2019-04-21T08:34:22.594Z,98186.78
2019-04-21T08:36:52.836Z,98187.11
2019-04-21T08:39:33.131Z,98184.34
2019-04-21T08:41:56.773Z,98180.10
2019-04-21T08:44:33.810Z,98170.97
2019-04-21T08:47:00.149Z,98177.42
2019-04-21T08:49:29.369Z,98166.96
2019-04-21T08:52:17.655Z,98174.28
2019-04-21T08:54:33.734Z,98159.91
2019-04-21T08:57:16.327Z,98160.58
2019-04-21T08:59:51.825Z,98155.39
2019-04-21T09:02:35.589Z,98153.66
2019-04-21T09:05:01.479Z,98149.77
2019-04-21T09:10:06.860Z,98142.78
2019-04-21T09:12:37.168Z,98150.58
2019-04-21T09:15:09.902Z,98139.39
2019-04-21T09:17:34.414Z,98145.58
2019-04-21T09:20:16.990Z,98139.42
2019-04-21T09:22:41.574Z,98141.75
2019-04-21T09:25:21.159Z,98142.17
2019-04-21T09:27:51.847Z,98129.23
2019-04-21T09:30:04.901Z,98131.35
2019-04-21T09:32:35.304Z,98126.19
2019-04-21T09:35:10.710Z,98118.66
2019-04-21T09:37:47.362Z,98120.23
2019-04-21T09:40:13.445Z,98113.16
2019-04-21T09:42:54.190Z,98118.64
2019-04-21T09:45:17.832Z,98123.58
2019-04-21T09:48:00.819Z,98108.86
2019-04-21T09:50:22.612Z,98100.28
2019-04-21T09:52:59.931Z,98099.68
2019-04-21T09:55:36.461Z,98115.79
2019-04-21T09:58:11.771Z,98100.80
2019-04-21T10:00:46.357Z,98104.92
2019-04-21T10:03:08.116Z,98084.61
2019-04-21T10:05:36.065Z,98087.45
2019-04-21T10:08:08.075Z,98096.28
2019-04-21T10:10:40.023Z,98088.84
2019-04-21T10:13:10.541Z,98078.83
2019-04-21T10:15:39.702Z,98081.50
2019-04-21T10:18:10.829Z,98082.86
2019-04-21T10:20:42.688Z,98070.66
2019-04-21T10:23:13.535Z,98076.19
2019-04-21T10:25:46.330Z,98069.25
2019-04-21T10:28:16.772Z,98070.64
2019-04-21T10:30:46.867Z,98061.20
2019-04-21T10:33:16.714Z,98059.13
2019-04-21T10:35:46.817Z,98049.56
2019-04-21T10:38:26.100Z,98055.70
2019-04-21T10:40:47.602Z,98053.19
2019-04-21T10:43:21.886Z,98054.01
2019-04-21T10:45:50.750Z,98053.36
2019-04-21T10:48:23.015Z,98047.48
2019-04-21T10:50:54.833Z,98042.41
2019-04-21T10:53:27.021Z,98034.63
2019-04-21T10:56:13.542Z,98031.48
2019-04-21T10:58:34.152Z,98042.95
2019-04-21T11:01:13.872Z,98026.02
2019-04-21T11:03:47.299Z,98025.30
2019-04-21T11:06:18.901Z,98024.77
2019-04-21T11:08:52.371Z,98031.77
2019-04-21T11:11:21.778Z,98012.91
2019-04-21T11:13:52.660Z,98027.30
2019-04-21T11:16:28.883Z,98018.13
2019-04-21T11:18:59.996Z,97996.47
2019-04-21T11:21:31.259Z,97998.84
2019-04-21T11:24:01.965Z,98007.19
2019-04-21T11:26:31.815Z,98003.98
2019-04-21T11:29:05.095Z,98011.06
2019-04-21T11:31:36.905Z,98005.30
2019-04-21T11:34:07.630Z,97989.94
2019-04-21T11:36:37.497Z,97996.83
2019-04-21T11:39:22.295Z,97989.06
2019-04-21T11:41:41.635Z,97987.31
2019-04-21T11:44:12.107Z,97981.95
2019-04-21T11:46:44.458Z,97983.02
2019-04-21T11:49:15.807Z,97975.44
2019-04-21T11:51:45.486Z,97973.44
2019-04-21T11:54:17.142Z,97972.45
2019-04-21T11:56:46.507Z,97969.76
2019-04-21T11:59:15.905Z,97967.91
2019-04-21T12:01:45.856Z,97962.19
2019-04-21T12:04:16.108Z,97960.43
2019-04-21T12:06:48.861Z,97947.48
2019-04-21T12:09:21.006Z,97945.78
2019-04-21T12:11:51.536Z,97951.22
2019-04-21T12:14:22.052Z,97955.98
2019-04-21T12:16:52.996Z,97953.33
2019-04-21T12:19:23.388Z,97941.45
2019-04-21T12:22:05.110Z,97948.19
2019-04-21T12:24:25.200Z,97948.17
2019-04-21T12:26:54.080Z,97944.80
2019-04-21T12:29:24.846Z,97928.54
2019-04-21T12:32:16.301Z,97927.89
2019-04-21T12:34:50.096Z,97913.84
2019-04-21T12:37:22.767Z,97910.39
2019-04-21T12:39:54.762Z,97912.59
2019-04-21T12:42:24.874Z,97913.11
2019-04-21T12:44:55.139Z,97904.63
2019-04-21T12:47:25.863Z,97899.81
2019-04-21T12:49:57.028Z,97898.19
2019-04-21T12:52:27.501Z,97892.71
2019-04-21T12:54:58.010Z,97892.28
2019-04-21T12:57:31.304Z,97884.64
2019-04-21T13:00:02.914Z,97880.66
2019-04-21T13:02:33.720Z,97875.30
2019-04-21T13:05:05.364Z,97875.45
2019-04-21T13:07:37.388Z,97870.62
2019-04-21T13:10:10.445Z,97867.02
2019-04-21T13:12:41.732Z,97860.44
2019-04-21T13:15:17.728Z,97856.12
2019-04-21T13:17:47.446Z,97855.91
2019-04-21T13:20:17.519Z,97844.41
2019-04-21T13:22:50.280Z,97854.77
2019-04-21T13:25:20.827Z,97843.37
2019-04-21T13:27:52.396Z,97839.31
2019-04-21T13:30:24.257Z,97829.22
2019-04-21T13:32:58.696Z,97827.27
2019-04-21T13:35:28.903Z,97823.00
2019-04-21T13:37:58.532Z,97826.72
2019-04-21T13:41:02.086Z,97823.89
2019-04-21T13:43:17.025Z,97815.97
2019-04-21T13:45:47.804Z,97813.86
2019-04-21T13:48:18.978Z,97820.90
2019-04-21T13:50:51.213Z,97817.60
2019-04-21T13:53:20.920Z,97809.00
2019-04-21T13:55:50.833Z,97807.40
2019-04-21T13:58:22.118Z,97799.45
2019-04-21T14:00:54.109Z,97799.83
2019-04-21T14:03:26.685Z,97796.66
2019-04-21T14:05:58.190Z,97786.75
2019-04-21T14:08:29.352Z,97791.06
2019-04-21T14:11:01.688Z,97788.55
2019-04-21T14:13:32.486Z,97788.39
2019-04-21T14:16:04.089Z,97786.82
2019-04-21T14:18:36.567Z,97779.52
2019-04-21T14:21:07.452Z,97772.03
2019-04-21T14:23:44.651Z,97765.77
2019-04-21T14:26:11.979Z,97767.87
2019-04-21T14:28:41.426Z,97767.47
2019-04-21T14:31:12.565Z,97770.76
2019-04-21T14:33:43.706Z,97764.64
2019-04-21T14:36:14.819Z,97770.22
2019-04-21T14:38:46.930Z,97761.84
2019-04-21T14:41:20.001Z,97759.87
2019-04-21T14:43:50.103Z,97748.88
2019-04-21T14:46:27.121Z,97756.19
2019-04-21T14:49:13.079Z,97741.88
2019-04-21T14:51:45.217Z,97744.45
2019-04-21T14:54:26.736Z,97739.64
2019-04-21T14:56:57.599Z,97739.28
2019-04-21T14:59:27.044Z,97745.30
2019-04-21T15:01:58.030Z,97741.71
2019-04-21T15:04:28.020Z,97739.88
2019-04-21T15:07:01.202Z,97731.71
2019-04-21T15:09:35.494Z,97730.80
2019-04-21T15:12:03.925Z,97721.61
2019-04-21T15:14:33.812Z,97726.11
2019-04-21T15:17:05.074Z,97730.91
2019-04-21T15:19:35.565Z,97721.34
2019-04-21T15:22:06.279Z,97727.31
2019-04-21T15:24:36.688Z,97715.40
2019-04-21T15:27:07.229Z,97709.45
2019-04-21T15:29:38.511Z,97715.08
2019-04-21T15:32:10.483Z,97713.20
2019-04-21T15:34:40.273Z,97703.06
2019-04-21T15:37:10.594Z,97702.91
2019-04-21T15:39:42.982Z,97700.31
2019-04-21T15:42:14.587Z,97712.02
2019-04-21T15:44:45.005Z,97703.06
2019-04-21T15:47:15.802Z,97694.06
2019-04-21T15:50:02.777Z,97699.77
2019-04-21T15:52:27.708Z,97696.72
2019-04-21T15:54:58.936Z,97689.70
2019-04-21T15:57:37.721Z,97683.44
2019-04-21T16:00:11.083Z,97679.95
2019-04-21T16:02:44.518Z,97676.55
2019-04-21T16:05:15.029Z,97682.86
2019-04-21T16:07:44.536Z,97677.25
2019-04-21T16:10:28.296Z,97680.25
2019-04-21T16:12:45.887Z,97673.73
2019-04-21T16:15:16.683Z,97675.92
2019-04-21T16:17:47.599Z,97670.04
2019-04-21T16:20:17.825Z,97676.19
2019-04-21T16:22:48.508Z,97669.57
2019-04-21T16:25:21.057Z,97661.63
2019-04-21T16:27:51.040Z,97662.84
2019-04-21T16:30:23.869Z,97654.97
2019-04-21T16:32:56.471Z,97662.59
2019-04-21T16:35:27.010Z,97654.13
2019-04-21T16:37:57.834Z,97644.32
2019-04-21T16:40:41.325Z,97652.02
2019-04-21T16:43:00.932Z,97642.55
2019-04-21T16:45:32.699Z,97642.58
2019-04-21T16:48:03.405Z,97643.76
2019-04-21T16:50:34.249Z,97645.22
2019-04-21T16:53:04.358Z,97638.34
2019-04-21T16:55:51.144Z,97634.48
2019-04-21T16:58:34.736Z,97634.11
2019-04-21T17:01:12.062Z,97634.48
2019-04-21T17:03:42.364Z,97624.94
2019-04-21T17:06:13.238Z,97629.51
2019-04-21T17:08:45.398Z,97620.23
2019-04-21T17:11:22.833Z,97618.36
2019-04-21T17:13:47.289Z,97617.25
2019-04-21T17:16:43.490Z,97616.92
2019-04-21T17:19:03.113Z,97616.88
2019-04-21T17:21:23.813Z,97614.95
2019-04-21T17:23:54.600Z,97620.29
2019-04-21T17:26:26.901Z,97617.70
2019-04-21T17:28:58.719Z,97613.39
2019-04-21T17:31:28.870Z,97614.19
2019-04-21T17:34:07.719Z,97615.64
2019-04-21T17:36:33.029Z,97611.52
2019-04-21T17:39:04.786Z,97607.86
2019-04-21T17:41:42.480Z,97603.59
2019-04-21T17:44:08.841Z,97608.94
2019-04-21T17:46:47.800Z,97604.23
2019-04-21T17:49:12.773Z,97611.06
2019-04-21T17:52:05.891Z,97617.03
2019-04-21T17:54:41.891Z,97621.39
2019-04-21T17:57:26.718Z,97618.45
2019-04-21T18:00:07.027Z,97619.41
2019-04-21T18:02:35.123Z,97621.30
2019-04-21T18:05:08.544Z,97620.59
2019-04-21T18:07:34.994Z,97626.23
2019-04-21T18:10:07.731Z,97623.66
2019-04-21T18:12:36.417Z,97634.16
2019-04-21T18:15:15.768Z,97627.06
2019-04-21T18:17:26.792Z,97638.05
2019-04-21T18:19:57.204Z,97609.65
2019-04-21T18:22:36.049Z,97609.65
2019-04-21T18:25:10.012Z,97638.39
2019-04-21T18:27:38.856Z,97623.67
2019-04-21T18:30:30.927Z,97632.39
2019-04-21T18:32:59.970Z,97632.39
2019-04-21T18:35:37.538Z,97634.39
2019-04-21T18:38:22.511Z,97639.47
2019-04-21T18:40:50.648Z,97636.99
2019-04-21T18:46:25.922Z,97641.70
2019-04-21T18:48:40.968Z,97639.08
2019-04-21T18:51:35.961Z,97642.72
2019-04-21T18:54:14.831Z,97641.25
2019-04-21T18:56:31.675Z,97644.10
2019-04-21T18:59:00.751Z,97642.06
2019-04-21T19:01:35.232Z,97645.14
2019-04-21T19:04:12.482Z,97644.84
2019-04-21T19:06:54.607Z,97643.37
2019-04-21T19:09:35.911Z,97648.08
2019-04-21T19:12:10.141Z,97653.25
2019-04-21T19:14:50.490Z,97652.53
2019-04-21T19:17:33.547Z,97643.58
2019-04-21T19:20:02.686Z,97646.34
2019-04-21T19:22:09.128Z,97647.91
2019-04-21T19:24:48.412Z,97647.36
2019-04-21T19:27:22.558Z,97646.87
2019-04-21T19:29:59.480Z,97650.95
2019-04-21T19:32:25.919Z,97642.66
2019-04-21T19:34:40.607Z,97648.09
2019-04-21T19:37:14.381Z,97652.91
2019-04-21T19:40:00.404Z,97648.47
2019-04-21T19:42:25.730Z,97652.79
2019-04-21T19:45:08.903Z,97649.80
2019-04-21T19:47:41.794Z,97652.59
2019-04-21T19:50:12.129Z,97649.30
2019-04-21T19:52:36.599Z,97650.12
2019-04-21T19:54:56.759Z,97647.05
2019-04-21T19:57:27.369Z,97646.66
2019-04-21T20:00:00.396Z,97636.45
2019-04-21T20:02:28.138Z,97642.55
2019-04-21T20:05:05.931Z,97634.02
2019-04-21T20:07:43.866Z,97640.56
2019-04-21T20:10:25.667Z,97637.36
2019-04-21T20:12:50.375Z,97642.12
2019-04-21T20:15:31.303Z,97641.15
2019-04-21T20:17:54.048Z,97638.29
2019-04-21T20:20:13.198Z,97633.52
2019-04-21T20:22:47.406Z,97633.20
2019-04-21T20:25:20.982Z,97630.66
2019-04-21T20:28:01.306Z,97633.50
2019-04-21T20:30:46.115Z,97632.34
2019-04-21T20:33:38.117Z,97630.56
2019-04-21T20:35:52.335Z,97626.23
2019-04-21T20:38:15.689Z,97624.28
2019-04-21T20:40:45.933Z,97626.23
2019-04-21T20:43:26.970Z,97630.27
2019-04-21T20:46:03.476Z,97636.27
2019-04-21T20:48:29.925Z,97632.37
2019-04-21T20:51:11.899Z,97630.45
2019-04-21T20:53:36.089Z,97627.60
2019-04-21T20:56:02.217Z,97623.99
2019-04-21T20:58:41.150Z,97627.18
2019-04-21T21:03:48.884Z,97625.95
2019-04-21T21:06:19.510Z,97631.13
2019-04-21T21:08:49.910Z,97629.64
2019-04-21T21:11:24.377Z,97631.56
2019-04-21T21:14:01.140Z,97627.77
2019-04-21T21:16:36.889Z,97626.92
2019-04-21T21:19:11.203Z,97628.36
2019-04-21T21:21:36.539Z,97624.83
2019-04-21T21:24:10.262Z,97634.02
2019-04-21T21:26:44.066Z,97626.45
2019-04-21T21:29:18.276Z,97631.78
2019-04-21T21:31:49.070Z,97632.34
2019-04-21T21:34:21.382Z,97640.02
2019-04-21T21:36:49.451Z,97638.02
2019-04-21T21:39:21.287Z,97634.02
2019-04-21T21:41:45.220Z,97627.61
2019-04-21T21:44:17.799Z,97632.59
2019-04-21T21:46:59.463Z,97626.95
2019-04-21T21:49:40.905Z,97629.79
2019-04-21T21:52:01.753Z,97630.84
2019-04-21T21:54:20.405Z,97626.73
2019-04-21T21:56:50.791Z,97628.87
2019-04-21T21:59:25.599Z,97632.53
2019-04-21T22:01:54.874Z,97631.77
2019-04-21T22:04:30.696Z,97628.95
2019-04-21T22:07:04.569Z,97634.42
2019-04-21T22:09:28.679Z,97632.03
2019-04-21T22:12:03.146Z,97637.67
2019-04-21T22:14:36.905Z,97633.13
2019-04-21T22:17:21.413Z,97630.54
2019-04-21T22:19:58.227Z,97634.02
2019-04-21T22:22:23.228Z,97631.22
2019-04-21T22:24:50.790Z,97624.03
2019-04-21T22:27:13.297Z,97623.11
2019-04-21T22:29:48.199Z,97625.67
2019-04-21T22:32:22.937Z,97620.30
2019-04-21T22:34:54.810Z,97623.50
2019-04-21T22:37:38.053Z,97622.34
2019-04-21T22:40:11.349Z,97629.14
2019-04-21T22:42:29.450Z,97624.78
2019-04-21T22:44:56.736Z,97626.41
2019-04-21T22:47:32.201Z,97623.64
2019-04-21T22:49:59.738Z,97627.05
2019-04-21T22:52:31.985Z,97622.05
2019-04-21T22:55:08.203Z,97621.86
2019-04-21T22:57:41.742Z,97618.67
2019-04-21T23:00:10.726Z,97620.06
2019-04-21T23:02:39.285Z,97622.05
2019-04-21T23:05:10.182Z,97619.66
2019-04-21T23:07:49.510Z,97620.08
2019-04-21T23:10:13.546Z,97616.88
2019-04-21T23:12:44.070Z,97620.09
2019-04-21T23:15:20.474Z,97612.31
2019-04-21T23:18:04.993Z,97611.32
2019-04-21T23:20:41.993Z,97609.72
2019-04-21T23:23:11.811Z,97611.91
2019-04-21T23:25:40.059Z,97608.32
2019-04-21T23:28:11.505Z,97604.32
2019-04-21T23:30:50.297Z,97605.94
2019-04-21T23:33:06.415Z,97600.34
2019-04-21T23:35:38.221Z,97605.72
2019-04-21T23:38:05.373Z,97605.91
2019-04-21T23:40:35.175Z,97600.34
2019-04-21T23:43:09.316Z,97602.13
2019-04-21T23:45:41.324Z,97597.74
2019-04-21T23:48:23.532Z,97594.32
2019-04-21T23:50:50.736Z,97598.06
2019-04-21T23:53:13.196Z,97593.28
2019-04-21T23:55:45.735Z,97589.28
2019-04-21T23:58:22.208Z,97589.50
